createdAt,value
2023-01-27T00:23:53.699Z,21.1
2023-01-27T00:29:01.419Z,21.1
2023-01-27T00:34:08.859Z,21.1
2023-01-27T00:39:00.732Z,21
2023-01-27T00:43:52.115Z,21.1
2023-01-27T00:48:58.767Z,21
2023-01-27T00:53:49.137Z,21
2023-01-27T00:58:55.626Z,21
2023-01-27T01:04:02.393Z,21
2023-01-27T01:09:09.718Z,21
2023-01-27T01:14:16.944Z,20.9
2023-01-27T01:19:24.086Z,20.9
2023-01-27T01:24:31.092Z,20.9
2023-01-27T01:29:53.422Z,20.9
2023-01-27T01:35:16.776Z,20.9
2023-01-27T01:40:41.791Z,20.9
2023-01-27T01:46:04.195Z,20.9
2023-01-27T01:51:26.811Z,20.9
2023-01-27T01:56:48.614Z,20.9
2023-01-27T02:02:13.958Z,20.9
2023-01-27T02:07:36.442Z,20.8
2023-01-27T02:12:57.914Z,20.9
2023-01-27T02:18:21.690Z,20.9
2023-01-27T02:23:28.333Z,21
2023-01-27T02:28:51.190Z,21.1
2023-01-27T02:38:54.995Z,21.2
2023-01-27T02:44:17.401Z,21.3
2023-01-27T02:49:40.698Z,21.4
2023-01-27T02:55:02.811Z,21.5
2023-01-27T03:00:24.321Z,21.6
2023-01-27T03:05:47.873Z,21.7
2023-01-27T03:11:10.321Z,21.8
2023-01-27T03:16:17.578Z,21.8
2023-01-27T03:21:40.535Z,21.8
2023-01-27T03:27:03.339Z,21.9
2023-01-27T03:32:11.035Z,21.9
2023-01-27T03:37:34.187Z,21.9
2023-01-27T03:42:56.491Z,21.9
2023-01-27T03:48:19.223Z,21.9
2023-01-27T03:53:41.840Z,21.9
2023-01-27T03:59:04.506Z,21.9
2023-01-27T04:04:27.061Z,22
2023-01-27T04:09:49.673Z,22
2023-01-27T04:15:13.289Z,22
2023-01-27T04:20:19.593Z,22
2023-01-27T04:25:45.256Z,22.1
2023-01-27T04:31:19.079Z,22
2023-01-27T04:36:30.678Z,22.1
2023-01-27T04:41:54.609Z,22.1
2023-01-27T04:47:02.245Z,22.1
2023-01-27T04:52:08.847Z,22.1
2023-01-27T04:57:16.322Z,22.1
2023-01-27T05:02:23.926Z,22.1
2023-01-27T05:07:32.262Z,22.1
2023-01-27T05:12:40.055Z,22.1
2023-01-27T05:17:47.049Z,22.1
2023-01-27T05:22:54.764Z,22.1
2023-01-27T05:28:18.156Z,22.1
2023-01-27T05:33:41.289Z,22.1
2023-01-27T05:39:03.789Z,22.1
2023-01-27T05:44:11.377Z,22.1
2023-01-27T05:49:34.564Z,22.1
2023-01-27T05:54:58.764Z,22.1
2023-01-27T05:59:51.860Z,22.1
2023-01-27T06:05:00.738Z,22
2023-01-27T06:10:07.880Z,22
2023-01-27T06:15:31.751Z,22
2023-01-27T06:20:23.416Z,22
2023-01-27T06:25:45.808Z,21.9
2023-01-27T06:31:21.910Z,21.9
2023-01-27T06:36:44.989Z,21.9
2023-01-27T06:42:07.494Z,21.9
2023-01-27T06:47:31.127Z,21.9
2023-01-27T06:52:53.982Z,21.9
2023-01-27T06:58:19.031Z,21.9
2023-01-27T07:03:44.675Z,21.8
2023-01-27T07:09:07.384Z,21.9
2023-01-27T07:14:43.227Z,21.8
2023-01-27T07:20:08.236Z,21.8
2023-01-27T07:25:15.467Z,21.8
2023-01-27T07:30:48.931Z,21.8
2023-01-27T07:36:12.697Z,21.8
2023-01-27T07:41:38.292Z,21.8
2023-01-27T07:47:01.663Z,21.8
2023-01-27T07:52:08.918Z,21.8
2023-01-27T07:57:16.314Z,21.8
2023-01-27T08:02:39.215Z,21.7
2023-01-27T08:08:18.311Z,21.7
2023-01-27T08:13:44.475Z,21.8
2023-01-27T08:19:06.893Z,21.7
2023-01-27T08:24:30.589Z,21.7
2023-01-27T08:29:53.342Z,21.7
2023-01-27T08:35:16.061Z,21.7
2023-01-27T08:40:41.523Z,21.7
2023-01-27T08:46:04.302Z,21.6
2023-01-27T08:51:26.839Z,21.6
2023-01-27T08:56:49.754Z,21.6
2023-01-27T09:02:12.800Z,21.6
2023-01-27T09:07:36.021Z,21.6
2023-01-27T09:13:08.797Z,21.6
2023-01-27T09:18:31.573Z,21.6
2023-01-27T09:23:54.110Z,21.6
2023-01-27T09:29:25.422Z,21.6
2023-01-27T09:34:49.640Z,21.6
2023-01-27T09:40:12.235Z,21.6
2023-01-27T09:45:35.283Z,21.6
2023-01-27T09:51:01.745Z,21.6
2023-01-27T09:56:31.374Z,21.6
2023-01-27T10:01:54.292Z,21.5
2023-01-27T10:07:17.510Z,21.5
2023-01-27T10:12:40.657Z,21.5
2023-01-27T10:18:03.891Z,21.5
2023-01-27T10:23:26.372Z,21.4
2023-01-27T10:28:48.408Z,21.4
2023-01-27T10:34:11.934Z,21.4
2023-01-27T10:39:34.885Z,21.4
2023-01-27T10:44:57.573Z,21.4
2023-01-27T10:50:21.009Z,21.4
2023-01-27T10:55:43.043Z,21.4
2023-01-27T11:02:09.415Z,21.4
2023-01-27T11:07:32.440Z,21.4
2023-01-27T11:12:55.061Z,21.3
2023-01-27T11:18:17.547Z,21.3
2023-01-27T11:23:52.601Z,21.3
2023-01-27T11:29:17.156Z,21.3
2023-01-27T11:34:39.866Z,21.3
2023-01-27T11:40:17.437Z,21.3
2023-01-27T11:45:39.519Z,21.3
2023-01-27T11:51:02.191Z,21.3
2023-01-27T11:56:25.106Z,21.3
2023-01-27T12:01:49.024Z,21.3
2023-01-27T12:07:12.121Z,21.3
2023-01-27T12:12:38.377Z,21.3
2023-01-27T12:18:01.091Z,21.3
2023-01-27T12:23:08.619Z,21.3
2023-01-27T12:28:31.504Z,21.3
2023-01-27T12:33:55.219Z,21.3
2023-01-27T12:39:18.309Z,21.3
2023-01-27T12:44:41.379Z,21.3
2023-01-27T12:50:05.744Z,21.3
2023-01-27T12:55:28.519Z,21.3
2023-01-27T13:00:54.041Z,21.3
2023-01-27T13:06:17.433Z,21.2
2023-01-27T13:11:39.920Z,21.2
2023-01-27T13:17:03.330Z,21.2
2023-01-27T13:32:38.112Z,21.1
2023-01-27T13:43:07.961Z,21.1
2023-01-27T13:53:41.238Z,21.1
2023-01-27T13:58:48.707Z,21.1
2023-01-27T14:04:12.200Z,21.1
2023-01-27T14:09:19.955Z,21.1
2023-01-27T14:14:56.359Z,21
2023-01-27T14:20:04.916Z,21
2023-01-27T14:25:27.967Z,21
2023-01-27T14:30:50.771Z,20.9
2023-01-27T14:36:14.089Z,20.9
2023-01-27T14:41:37.095Z,20.9
2023-01-27T14:47:22.348Z,20.9
2023-01-27T14:52:45.337Z,20.8
2023-01-27T14:58:08.644Z,20.9
2023-01-27T15:03:32.045Z,20.8
2023-01-27T15:08:55.733Z,20.8
2023-01-27T15:14:02.452Z,20.8
2023-01-27T15:19:24.988Z,20.8
2023-01-27T15:24:47.866Z,20.8
2023-01-27T15:30:10.923Z,20.8
2023-01-27T15:35:35.232Z,20.7
2023-01-27T15:40:54.664Z,20.7
2023-01-27T15:46:20.350Z,20.7
2023-01-27T15:51:42.774Z,20.6
2023-01-27T15:57:07.936Z,20.6
2023-01-27T16:02:34.295Z,20.6
2023-01-27T16:07:58.579Z,20.6
2023-01-27T16:13:21.800Z,20.6
2023-01-27T16:18:29.068Z,20.6
2023-01-27T16:23:51.895Z,20.6
2023-01-27T16:29:15.439Z,20.6
2023-01-27T16:34:38.138Z,20.6
2023-01-27T16:40:01.368Z,20.5
2023-01-27T16:45:24.365Z,20.6
2023-01-27T16:50:59.798Z,20.6
2023-01-27T16:56:36.652Z,20.6
2023-01-27T17:02:12.913Z,20.5
2023-01-27T17:07:46.949Z,20.5
2023-01-27T17:13:26.148Z,20.6
2023-01-27T17:19:13.509Z,20.5
2023-01-27T17:24:36.899Z,20.5
2023-01-27T17:30:01.373Z,20.5
2023-01-27T17:35:35.889Z,20.6
2023-01-27T17:41:07.228Z,20.5
2023-01-27T17:46:34.927Z,20.6
2023-01-27T17:52:03.690Z,20.5
2023-01-27T17:57:37.548Z,20.5
2023-01-27T18:02:49.845Z,20.6
2023-01-27T18:07:59.119Z,20.5
2023-01-27T18:13:27.654Z,20.7
2023-01-27T18:18:54.528Z,20.9
2023-01-27T18:24:25.580Z,21.1
2023-01-27T18:29:55.620Z,21.3
2023-01-27T18:35:10.428Z,21.5
2023-01-27T18:40:26.241Z,21.8
2023-01-27T18:46:05.095Z,22
2023-01-27T18:51:46.214Z,22.2
2023-01-27T18:57:27.674Z,22.3
2023-01-27T19:03:06.099Z,22.4
2023-01-27T19:08:41.685Z,22.4
2023-01-27T19:14:11.544Z,22.6
2023-01-27T19:19:37.784Z,22.7
2023-01-27T19:25:09.173Z,22.8
2023-01-27T19:30:09.441Z,22.7
2023-01-27T19:35:23.755Z,22.6
2023-01-27T19:40:52.584Z,22.3
2023-01-27T19:46:23.361Z,22.1
2023-01-27T19:51:50.794Z,21.9
2023-01-27T19:57:17.596Z,21.8
2023-01-27T20:02:45.671Z,21.6
2023-01-27T20:08:14.919Z,21.5
2023-01-27T20:13:44.049Z,21.4
2023-01-27T20:19:13.619Z,21.3
2023-01-27T20:24:38.653Z,21.2
2023-01-27T20:30:06.248Z,21.1
2023-01-27T20:35:32.221Z,20.9
2023-01-27T20:40:40.487Z,20.9
2023-01-27T20:46:01.713Z,20.8
2023-01-27T20:51:24.981Z,20.7
2023-01-27T20:56:47.823Z,20.6
2023-01-27T21:02:10.737Z,20.6
2023-01-27T21:07:34.158Z,20.5
2023-01-27T21:12:56.881Z,20.4
2023-01-27T21:18:20.213Z,20.3
2023-01-27T21:23:28.070Z,20.3
2023-01-27T21:28:53.734Z,20.3
2023-01-27T21:34:01.741Z,20.2
2023-01-27T21:39:08.911Z,20.1
2023-01-27T21:44:31.590Z,20.1
2023-01-27T21:49:54.854Z,20.1
2023-01-27T21:55:17.708Z,19.9
2023-01-27T22:00:40.137Z,19.9
2023-01-27T22:06:05.854Z,19.9
2023-01-27T22:11:29.106Z,19.9
2023-01-27T22:16:51.977Z,19.8
2023-01-27T22:21:58.841Z,19.8
2023-01-27T22:27:05.029Z,19.8
2023-01-27T22:32:26.790Z,19.8
2023-01-27T22:37:50.549Z,19.7
2023-01-27T22:43:13.291Z,19.7
2023-01-27T22:48:35.845Z,19.6
2023-01-27T22:53:58.714Z,19.6
2023-01-27T22:59:20.814Z,19.6
2023-01-27T23:04:43.292Z,19.6
2023-01-27T23:10:06.375Z,19.5
2023-01-27T23:15:29.687Z,19.4
2023-01-27T23:20:51.974Z,19.4
2023-01-27T23:26:14.720Z,19.4
2023-01-27T23:31:44.076Z,19.4
2023-01-27T23:37:07.014Z,19.4
2023-01-27T23:42:47.946Z,19.3
2023-01-27T23:48:10.148Z,19.3
2023-01-27T23:53:32.708Z,19.3
2023-01-27T23:58:55.400Z,19.3
